createdAt,value
2019-02-27T00:01:24.230Z,3.00
2019-02-27T00:03:35.241Z,3.23
2019-02-27T00:05:46.055Z,2.87
2019-02-27T00:07:56.857Z,3.10
2019-02-27T00:10:07.851Z,3.07
2019-02-27T00:12:19.360Z,2.80
2019-02-27T00:14:31.812Z,2.93
2019-02-27T00:16:44.637Z,3.13
2019-02-27T00:18:58.822Z,3.60
2019-02-27T00:21:11.032Z,3.00
2019-02-27T00:23:24.058Z,3.30
2019-02-27T00:25:36.112Z,3.30
2019-02-27T00:27:49.103Z,3.40
2019-02-27T00:30:04.591Z,2.97
2019-02-27T00:32:13.220Z,3.50
2019-02-27T00:34:24.123Z,2.90
2019-02-27T00:36:34.954Z,3.60
2019-02-27T00:38:45.751Z,2.60
2019-02-27T00:40:56.563Z,2.90
2019-02-27T00:43:07.372Z,3.00
2019-02-27T00:45:18.169Z,2.63
2019-02-27T00:47:29.135Z,3.00
2019-02-27T00:49:40.026Z,3.00
2019-02-27T00:51:50.842Z,2.30
2019-02-27T00:54:01.743Z,2.77
2019-02-27T00:56:12.925Z,2.73
2019-02-27T00:58:27.044Z,3.13
2019-02-27T01:00:39.351Z,3.00
2019-02-27T01:02:53.491Z,3.17
2019-02-27T01:05:45.211Z,3.43
2019-02-27T01:07:56.139Z,3.37
2019-02-27T01:10:48.610Z,2.80
2019-02-27T01:12:59.445Z,2.40
2019-02-27T01:15:51.892Z,3.00
2019-02-27T01:18:02.829Z,2.67
2019-02-27T01:20:35.389Z,2.50
2019-02-27T01:22:46.200Z,2.90
2019-02-27T01:24:57.151Z,2.87
2019-02-27T01:27:07.970Z,2.77
2019-02-27T01:29:18.796Z,4.83
2019-02-27T01:31:29.664Z,4.43
2019-02-27T01:33:40.503Z,4.57
2019-02-27T01:35:52.131Z,4.97
2019-02-27T01:38:05.288Z,5.43
2019-02-27T01:40:18.032Z,5.57
2019-02-27T01:42:32.794Z,4.93
2019-02-27T01:44:43.995Z,4.10
2019-02-27T01:46:54.901Z,3.00
2019-02-27T01:49:05.722Z,3.20
2019-02-27T01:51:16.518Z,2.93
2019-02-27T01:53:27.307Z,3.30
2019-02-27T01:55:38.132Z,3.23
2019-02-27T01:57:48.929Z,3.30
2019-02-27T01:59:59.757Z,3.60
2019-02-27T02:02:10.546Z,2.87
2019-02-27T02:04:21.383Z,2.97
2019-02-27T02:06:32.926Z,3.70
2019-02-27T02:08:48.000Z,3.40
2019-02-27T02:10:58.900Z,2.90
2019-02-27T02:13:52.131Z,3.17
2019-02-27T02:16:44.589Z,2.97
2019-02-27T02:19:37.044Z,3.17
2019-02-27T02:22:27.586Z,2.83
2019-02-27T02:25:20.037Z,2.60
2019-02-27T02:28:14.704Z,2.33
2019-02-27T02:31:06.405Z,2.80
2019-02-27T02:34:05.110Z,2.50
2019-02-27T02:36:51.434Z,2.17
2019-02-27T02:39:41.973Z,2.33
2019-02-27T02:42:32.530Z,2.57
2019-02-27T02:45:23.091Z,2.50
2019-02-27T02:48:15.567Z,2.80
2019-02-27T02:50:53.918Z,2.80
2019-02-27T02:53:40.592Z,2.83
2019-02-27T02:56:31.127Z,3.20
2019-02-27T02:59:24.927Z,2.67
2019-02-27T03:02:14.112Z,2.67
2019-02-27T03:05:04.673Z,2.73
2019-02-27T03:07:57.148Z,3.00
2019-02-27T03:10:49.580Z,2.90
2019-02-27T03:13:22.228Z,3.27
2019-02-27T03:16:14.681Z,2.90
2019-02-27T03:19:07.158Z,3.43
2019-02-27T03:22:03.122Z,3.10
2019-02-27T03:24:52.079Z,3.07
2019-02-27T03:27:44.511Z,2.57
2019-02-27T03:30:36.875Z,2.80
2019-02-27T03:33:27.578Z,2.63
2019-02-27T03:36:19.967Z,3.00
2019-02-27T03:39:12.438Z,2.60
2019-02-27T03:42:02.957Z,2.37
2019-02-27T03:44:56.371Z,2.43
2019-02-27T03:47:52.084Z,3.17
2019-02-27T03:50:49.566Z,3.13
2019-02-27T03:53:38.473Z,3.17
2019-02-27T03:56:30.929Z,3.00
2019-02-27T03:59:23.391Z,3.00
2019-02-27T04:02:15.836Z,3.10
2019-02-27T04:05:08.295Z,2.90
2019-02-27T04:07:58.846Z,2.90
2019-02-27T04:10:09.661Z,3.57
2019-02-27T04:12:20.462Z,2.80
2019-02-27T04:15:17.740Z,3.70
2019-02-27T04:17:51.888Z,3.80
2019-02-27T04:19:58.145Z,3.80
2019-02-27T04:22:08.943Z,3.53
2019-02-27T04:24:22.551Z,3.27
2019-02-27T04:26:32.477Z,3.53
2019-02-27T04:28:43.265Z,3.40
2019-02-27T04:30:54.106Z,4.10
2019-02-27T04:33:04.932Z,4.20
2019-02-27T04:35:15.754Z,3.63
2019-02-27T04:37:26.562Z,3.83
2019-02-27T04:39:38.289Z,3.63
2019-02-27T04:41:51.995Z,3.67
2019-02-27T04:44:05.369Z,3.50
2019-02-27T04:46:15.595Z,6.67
2019-02-27T04:48:27.085Z,5.30
2019-02-27T04:50:41.731Z,3.83
2019-02-27T04:52:51.918Z,3.30
2019-02-27T04:55:44.360Z,4.07
2019-02-27T04:57:55.173Z,5.70
2019-02-27T05:00:47.625Z,7.80
2019-02-27T05:02:58.449Z,7.10
2019-02-27T05:05:09.348Z,4.20
2019-02-27T05:07:20.842Z,3.30
2019-02-27T05:09:34.046Z,3.57
2019-02-27T05:11:48.338Z,3.30
2019-02-27T05:13:58.383Z,3.20
2019-02-27T05:16:50.852Z,3.50
2019-02-27T05:19:03.992Z,3.53
2019-02-27T05:21:18.955Z,3.47
2019-02-27T05:23:27.204Z,4.13
2019-02-27T05:25:37.993Z,3.60
2019-02-27T05:27:48.804Z,3.40
2019-02-27T05:30:00.097Z,3.73
2019-02-27T05:32:12.323Z,4.37
2019-02-27T05:34:23.161Z,3.70
2019-02-27T05:36:33.954Z,3.30
2019-02-27T05:38:44.780Z,3.30
2019-02-27T05:40:59.847Z,5.27
2019-02-27T05:43:08.312Z,5.07
2019-02-27T05:45:19.100Z,4.43
2019-02-27T05:47:29.886Z,3.97
2019-02-27T05:49:40.708Z,3.47
2019-02-27T05:51:51.506Z,3.80
2019-02-27T05:54:02.325Z,3.83
2019-02-27T05:56:15.615Z,3.33
2019-02-27T05:58:25.820Z,3.93
2019-02-27T06:00:36.627Z,3.43
2019-02-27T06:02:47.429Z,3.67
2019-02-27T06:04:59.160Z,4.27
2019-02-27T06:07:10.974Z,3.90
2019-02-27T06:09:21.777Z,3.90
2019-02-27T06:11:33.199Z,3.37
2019-02-27T06:13:47.593Z,3.40
2019-02-27T06:16:02.768Z,3.20
2019-02-27T06:18:10.747Z,4.83
2019-02-27T06:20:21.600Z,3.93
2019-02-27T06:22:32.508Z,3.97
2019-02-27T06:24:45.598Z,3.90
2019-02-27T06:26:56.055Z,4.93
2019-02-27T06:29:06.992Z,4.93
2019-02-27T06:31:17.828Z,5.20
2019-02-27T06:33:28.628Z,4.43
2019-02-27T06:35:39.443Z,5.13
2019-02-27T06:37:51.358Z,5.10
2019-02-27T06:40:44.621Z,5.53
2019-02-27T06:42:56.883Z,5.20
2019-02-27T06:45:49.824Z,5.40
2019-02-27T06:48:00.667Z,5.60
2019-02-27T06:50:31.346Z,5.20
2019-02-27T06:52:43.030Z,5.73
2019-02-27T06:54:55.006Z,5.37
2019-02-27T06:57:07.772Z,6.37
2019-02-27T06:59:18.541Z,5.77
2019-02-27T07:01:29.369Z,5.40
2019-02-27T07:03:40.178Z,5.30
2019-02-27T07:05:51.020Z,5.50
2019-02-27T07:08:02.219Z,6.37
2019-02-27T07:10:36.282Z,6.67
2019-02-27T07:12:47.098Z,6.30
2019-02-27T07:14:57.901Z,6.10
2019-02-27T07:17:08.746Z,6.63
2019-02-27T07:19:19.569Z,6.10
2019-02-27T07:21:32.828Z,6.93
2019-02-27T07:23:43.112Z,7.37
2019-02-27T07:25:53.909Z,7.57
2019-02-27T07:28:08.391Z,10.23
2019-02-27T07:30:59.213Z,9.87
2019-02-27T07:33:10.071Z,8.30
2019-02-27T07:35:25.605Z,7.23
2019-02-27T07:37:33.628Z,6.50
2019-02-27T07:39:44.431Z,6.87
2019-02-27T07:41:55.247Z,6.37
2019-02-27T07:44:06.053Z,6.27
2019-02-27T07:46:16.933Z,6.70
2019-02-27T07:48:27.792Z,5.97
2019-02-27T07:50:38.623Z,6.60
2019-02-27T07:52:51.839Z,6.63
2019-02-27T07:55:43.902Z,6.67
2019-02-27T07:57:58.401Z,7.67
2019-02-27T08:00:27.298Z,6.93
2019-02-27T08:02:38.091Z,6.70
2019-02-27T08:04:48.905Z,6.47
2019-02-27T08:06:59.718Z,6.60
2019-02-27T08:09:10.556Z,6.97
2019-02-27T08:11:21.375Z,6.43
2019-02-27T08:13:32.170Z,6.53
2019-02-27T08:15:42.976Z,6.83
2019-02-27T08:17:57.476Z,6.00
2019-02-27T08:20:48.189Z,6.37
2019-02-27T08:22:59.062Z,6.47
2019-02-27T08:25:29.738Z,7.10
2019-02-27T08:27:43.085Z,6.43
2019-02-27T08:29:53.262Z,6.27
2019-02-27T08:32:05.540Z,6.77
2019-02-27T08:34:16.936Z,6.20
2019-02-27T08:36:27.749Z,6.00
2019-02-27T08:38:38.557Z,6.20
2019-02-27T08:40:49.348Z,6.40
2019-02-27T08:43:00.158Z,6.10
2019-02-27T08:45:30.847Z,6.30
2019-02-27T08:47:43.506Z,6.40
2019-02-27T08:49:57.629Z,6.57
2019-02-27T08:52:08.540Z,5.60
2019-02-27T08:54:19.942Z,5.97
2019-02-27T08:56:30.748Z,6.40
2019-02-27T08:58:41.542Z,6.13
2019-02-27T09:00:52.460Z,6.10
2019-02-27T09:03:03.747Z,5.80
2019-02-27T09:05:19.783Z,6.13
2019-02-27T09:07:28.937Z,5.97
2019-02-27T09:09:39.789Z,5.60
2019-02-27T09:11:50.600Z,6.80
2019-02-27T09:14:01.417Z,5.50
2019-02-27T09:16:12.246Z,6.33
2019-02-27T09:18:23.077Z,6.40
2019-02-27T09:20:33.941Z,6.10
2019-02-27T09:22:44.753Z,6.43
2019-02-27T09:24:57.168Z,6.30
2019-02-27T09:27:08.291Z,6.87
2019-02-27T09:29:19.313Z,5.10
2019-02-27T09:31:30.154Z,6.13
2019-02-27T09:33:40.966Z,5.93
2019-02-27T09:35:51.798Z,6.57
2019-02-27T09:38:02.599Z,6.40
2019-02-27T09:40:55.072Z,6.47
2019-02-27T09:43:06.330Z,6.77
2019-02-27T09:45:38.546Z,7.10
2019-02-27T09:47:49.484Z,7.20
2019-02-27T09:50:00.293Z,6.83
2019-02-27T09:52:11.117Z,6.47
2019-02-27T09:54:21.925Z,6.00
2019-02-27T09:56:32.869Z,6.57
2019-02-27T09:58:45.552Z,7.07
2019-02-27T10:01:38.048Z,6.33
2019-02-27T10:03:48.854Z,6.87
2019-02-27T10:05:59.648Z,6.40
2019-02-27T10:10:50.333Z,6.70
2019-02-27T10:13:03.278Z,7.37
2019-02-27T10:18:06.332Z,6.13
2019-02-27T10:20:17.138Z,6.60
2019-02-27T10:22:27.931Z,7.00
2019-02-27T10:24:38.782Z,7.20
2019-02-27T10:26:49.723Z,6.37
2019-02-27T10:29:00.574Z,6.20
2019-02-27T10:31:12.728Z,7.43
2019-02-27T10:33:25.842Z,6.80
2019-02-27T10:35:36.872Z,7.47
2019-02-27T10:37:50.469Z,7.47
2019-02-27T10:40:00.410Z,7.40
2019-02-27T10:42:11.318Z,6.93
2019-02-27T10:44:22.196Z,6.27
2019-02-27T10:46:33.025Z,6.27
2019-02-27T10:48:46.932Z,6.70
2019-02-27T10:50:56.594Z,6.50
2019-02-27T10:53:07.415Z,6.53
2019-02-27T10:55:59.895Z,6.37
2019-02-27T10:58:13.275Z,6.07
2019-02-27T11:01:05.089Z,6.17
2019-02-27T11:03:15.893Z,6.13
2019-02-27T11:06:08.390Z,6.10
2019-02-27T11:08:20.027Z,6.40
2019-02-27T11:10:30.862Z,6.13
2019-02-27T11:12:41.791Z,6.50
2019-02-27T11:14:52.625Z,5.90
2019-02-27T11:17:03.504Z,6.03
2019-02-27T11:19:16.645Z,5.90
2019-02-27T11:21:26.965Z,5.53
2019-02-27T11:23:40.906Z,5.70
2019-02-27T11:25:50.574Z,5.60
2019-02-27T11:28:01.399Z,5.33
2019-02-27T11:30:36.176Z,6.07
2019-02-27T11:32:46.192Z,5.77
2019-02-27T11:34:56.976Z,6.00
2019-02-27T11:37:12.854Z,5.80
2019-02-27T11:39:20.480Z,4.80
2019-02-27T11:41:31.297Z,6.07
2019-02-27T11:43:42.106Z,5.90
2019-02-27T11:45:57.526Z,5.67
2019-02-27T11:48:05.704Z,5.83
2019-02-27T11:50:58.158Z,5.83
2019-02-27T11:53:08.959Z,5.00
2019-02-27T11:56:01.438Z,5.13
2019-02-27T11:58:12.246Z,5.70
2019-02-27T12:01:04.744Z,4.73
2019-02-27T12:03:15.647Z,2.83
2019-02-27T12:06:08.505Z,3.67
2019-02-27T12:08:19.308Z,3.07
2019-02-27T12:11:13.269Z,1.87
2019-02-27T12:13:24.595Z,1.93
2019-02-27T12:15:35.413Z,1.80
2019-02-27T12:17:47.013Z,2.30
2019-02-27T12:19:59.037Z,1.90
2019-02-27T12:22:09.864Z,1.47
2019-02-27T12:24:20.705Z,1.77
2019-02-27T12:26:34.448Z,2.17
2019-02-27T12:28:44.476Z,2.50
2019-02-27T12:30:55.297Z,3.13
2019-02-27T12:33:06.148Z,3.03
2019-02-27T12:35:36.831Z,2.57
2019-02-27T12:37:47.730Z,2.90
2019-02-27T12:39:58.543Z,2.57
2019-02-27T12:42:09.360Z,2.27
2019-02-27T12:44:20.177Z,2.30
2019-02-27T12:46:31.842Z,2.70
2019-02-27T12:48:46.139Z,3.63
2019-02-27T12:50:56.434Z,3.73
2019-02-27T12:53:07.264Z,2.73
2019-02-27T12:57:56.598Z,2.40
2019-02-27T13:00:49.062Z,2.67
2019-02-27T13:02:59.977Z,2.60
2019-02-27T13:05:52.468Z,2.73
2019-02-27T13:08:03.304Z,2.37
2019-02-27T13:10:34.426Z,2.20
2019-02-27T13:12:45.222Z,2.90
2019-02-27T13:14:56.037Z,2.50
2019-02-27T13:17:06.833Z,2.37
2019-02-27T13:19:17.703Z,2.80
2019-02-27T13:21:28.500Z,3.50
2019-02-27T13:23:42.234Z,5.57
2019-02-27T13:25:52.042Z,5.50
2019-02-27T13:28:02.963Z,4.90
2019-02-27T13:30:33.652Z,4.47
2019-02-27T13:32:44.495Z,4.60
2019-02-27T13:34:55.316Z,5.30
2019-02-27T13:37:06.900Z,4.63
2019-02-27T13:39:18.844Z,5.00
2019-02-27T13:41:29.660Z,5.17
2019-02-27T13:43:40.483Z,4.40
2019-02-27T13:45:51.289Z,4.60
2019-02-27T13:50:34.652Z,4.13
2019-02-27T13:52:49.817Z,4.27
2019-02-27T13:54:58.142Z,4.27
2019-02-27T13:57:08.954Z,4.37
2019-02-27T13:59:19.756Z,4.13
2019-02-27T14:01:30.586Z,4.10
2019-02-27T14:03:41.492Z,3.93
2019-02-27T14:05:52.408Z,4.40
2019-02-27T14:08:03.305Z,4.63
2019-02-27T14:10:55.813Z,4.43
2019-02-27T14:13:09.733Z,4.13
2019-02-27T14:16:01.604Z,4.87
2019-02-27T14:18:13.449Z,4.53
2019-02-27T14:20:27.064Z,4.77
2019-02-27T14:22:40.730Z,4.50
2019-02-27T14:24:51.833Z,3.57
2019-02-27T14:27:03.678Z,4.37
2019-02-27T14:29:14.467Z,4.27
2019-02-27T14:31:25.265Z,3.83
2019-02-27T14:33:36.171Z,3.70
2019-02-27T14:35:47.237Z,4.00
2019-02-27T14:37:58.045Z,4.07
2019-02-27T14:40:50.491Z,3.93
2019-02-27T14:43:01.453Z,3.80
2019-02-27T14:45:53.881Z,3.77
2019-02-27T14:48:04.796Z,3.93
2019-02-27T14:50:57.237Z,4.00
2019-02-27T14:53:08.066Z,4.10
2019-02-27T14:56:00.515Z,5.07
2019-02-27T14:58:11.357Z,4.20
2019-02-27T15:01:03.822Z,4.73
2019-02-27T15:03:14.660Z,4.90
2019-02-27T15:05:25.475Z,5.10
2019-02-27T15:07:36.386Z,4.50
2019-02-27T15:09:48.011Z,5.30
2019-02-27T15:11:59.941Z,5.40
2019-02-27T15:14:10.775Z,5.37
2019-02-27T15:16:21.939Z,5.80
2019-02-27T15:18:32.777Z,5.20
2019-02-27T15:20:43.797Z,5.00
2019-02-27T15:22:54.871Z,5.27
2019-02-27T15:25:47.333Z,5.30
2019-02-27T15:27:59.522Z,5.53
2019-02-27T15:30:52.647Z,5.93
2019-02-27T15:33:05.466Z,6.00
2019-02-27T15:35:21.026Z,6.13
2019-02-27T15:37:30.354Z,6.60
2019-02-27T15:39:41.193Z,5.57
2019-02-27T15:41:51.996Z,6.53
2019-02-27T15:44:03.055Z,6.73
2019-02-27T15:46:13.940Z,6.73
2019-02-27T15:48:24.895Z,6.20
2019-02-27T15:50:35.738Z,6.33
2019-02-27T15:52:46.558Z,6.40
2019-02-27T15:54:59.192Z,6.67
2019-02-27T15:57:10.096Z,6.63
2019-02-27T15:59:20.986Z,7.00
2019-02-27T16:01:33.093Z,6.93
2019-02-27T16:03:46.505Z,6.83
2019-02-27T16:05:57.412Z,7.13
2019-02-27T16:08:08.217Z,6.90
2019-02-27T16:10:42.602Z,6.50
2019-02-27T16:12:51.758Z,7.13
2019-02-27T16:15:22.515Z,6.50
2019-02-27T16:17:33.444Z,5.70
2019-02-27T16:19:44.716Z,6.50
2019-02-27T16:21:57.876Z,7.07
2019-02-27T16:24:10.266Z,7.37
2019-02-27T16:26:26.969Z,8.00
2019-02-27T16:28:35.179Z,7.13
2019-02-27T16:30:45.977Z,8.63
2019-02-27T16:32:56.932Z,11.47
2019-02-27T16:35:08.140Z,7.37
2019-02-27T16:37:22.850Z,5.97
2019-02-27T16:39:33.303Z,6.70
2019-02-27T16:41:45.040Z,5.97
2019-02-27T16:43:56.875Z,5.97
2019-02-27T16:46:08.767Z,6.00
2019-02-27T16:48:20.406Z,7.07
2019-02-27T16:50:31.216Z,12.77
2019-02-27T16:52:42.778Z,8.47
2019-02-27T16:54:54.906Z,7.97
2019-02-27T16:57:05.736Z,7.13
2019-02-27T16:59:16.574Z,7.27
2019-02-27T17:01:29.558Z,6.70
2019-02-27T17:03:40.112Z,5.87
2019-02-27T17:05:50.917Z,6.50
2019-02-27T17:08:02.736Z,6.40
2019-02-27T17:10:56.189Z,6.07
2019-02-27T17:13:06.982Z,5.77
2019-02-27T17:15:17.997Z,5.70
2019-02-27T17:17:28.843Z,5.20
2019-02-27T17:19:39.676Z,6.80
2019-02-27T17:21:50.475Z,5.67
2019-02-27T17:24:01.327Z,6.30
2019-02-27T17:26:12.148Z,6.43
2019-02-27T17:28:23.024Z,6.97
2019-02-27T17:31:15.476Z,7.30
2019-02-27T17:33:26.330Z,7.67
2019-02-27T17:35:37.145Z,7.70
2019-02-27T17:37:48.025Z,7.57
2019-02-27T17:39:59.319Z,6.60
2019-02-27T17:42:11.626Z,7.43
2019-02-27T17:44:22.447Z,7.43
2019-02-27T17:46:33.242Z,7.53
2019-02-27T17:48:45.945Z,8.20
2019-02-27T17:50:56.821Z,7.83
2019-02-27T17:53:07.630Z,7.47
2019-02-27T17:55:18.564Z,7.50
2019-02-27T17:57:29.350Z,7.23
2019-02-27T17:59:42.424Z,8.00
2019-02-27T18:01:53.186Z,6.80
2019-02-27T18:04:03.994Z,8.13
2019-02-27T18:06:14.822Z,7.00
2019-02-27T18:08:25.633Z,8.17
2019-02-27T18:13:15.497Z,8.33
2019-02-27T18:15:26.342Z,8.27
2019-02-27T18:17:37.126Z,8.57
2019-02-27T18:19:50.176Z,8.90
2019-02-27T18:22:00.735Z,8.80
2019-02-27T18:24:11.545Z,7.97
2019-02-27T18:26:22.380Z,8.77
2019-02-27T18:28:33.706Z,8.60
2019-02-27T18:30:45.968Z,9.27
2019-02-27T18:32:56.917Z,8.27
2019-02-27T18:35:07.823Z,9.20
2019-02-27T18:37:19.740Z,9.47
2019-02-27T18:39:36.381Z,9.03
2019-02-27T18:41:45.731Z,10.37
2019-02-27T18:43:56.827Z,10.33
2019-02-27T18:46:07.688Z,10.73
2019-02-27T18:48:18.516Z,10.23
2019-02-27T18:50:29.461Z,11.23
2019-02-27T18:52:40.266Z,13.00
2019-02-27T18:54:51.090Z,11.27
2019-02-27T18:57:01.920Z,10.80
2019-02-27T18:59:12.832Z,10.50
2019-02-27T19:01:23.864Z,9.63
2019-02-27T19:03:34.655Z,9.30
2019-02-27T19:05:45.475Z,9.57
2019-02-27T19:07:56.421Z,9.73
2019-02-27T19:12:45.432Z,10.10
2019-02-27T19:14:56.352Z,9.07
2019-02-27T19:17:07.342Z,9.10
2019-02-27T19:19:18.306Z,9.00
2019-02-27T19:21:32.552Z,10.20
2019-02-27T19:23:41.846Z,10.93
2019-02-27T19:25:52.669Z,16.43
2019-02-27T19:28:03.513Z,13.90
2019-02-27T19:30:34.821Z,9.83
2019-02-27T19:33:27.532Z,9.93
2019-02-27T19:35:38.320Z,10.27
2019-02-27T19:37:49.158Z,10.20
2019-02-27T19:39:59.982Z,9.37
2019-02-27T19:42:13.128Z,8.50
2019-02-27T19:44:28.585Z,9.13
2019-02-27T19:46:36.404Z,8.93
2019-02-27T19:48:47.258Z,9.43
2019-02-27T19:50:58.167Z,8.50
2019-02-27T19:53:09.098Z,9.33
2019-02-27T19:55:19.926Z,8.87
2019-02-27T19:57:30.715Z,8.70
2019-02-27T19:59:41.571Z,8.97
2019-02-27T20:01:52.390Z,8.83
2019-02-27T20:04:03.232Z,9.90
2019-02-27T20:06:14.060Z,8.90
2019-02-27T20:08:26.482Z,8.90
2019-02-27T20:10:37.815Z,8.77
2019-02-27T20:12:52.934Z,9.87
2019-02-27T20:15:01.574Z,8.83
2019-02-27T20:17:12.421Z,8.33
2019-02-27T20:19:28.373Z,10.13
2019-02-27T20:21:36.071Z,8.90
2019-02-27T20:23:46.923Z,9.10
2019-02-27T20:25:57.718Z,9.57
2019-02-27T20:28:08.631Z,9.27
2019-02-27T20:31:01.115Z,8.40
2019-02-27T20:33:11.997Z,10.00
2019-02-27T20:35:22.960Z,9.60
2019-02-27T20:37:33.874Z,9.17
2019-02-27T20:39:44.879Z,9.40
2019-02-27T20:41:55.718Z,8.73
2019-02-27T20:44:06.616Z,10.10
2019-02-27T20:46:17.559Z,9.47
2019-02-27T20:48:28.343Z,9.43
2019-02-27T20:51:20.816Z,8.67
2019-02-27T20:53:31.639Z,9.87
2019-02-27T20:55:42.442Z,9.70
2019-02-27T20:57:53.388Z,9.27
2019-02-27T21:00:45.887Z,9.70
2019-02-27T21:02:56.886Z,9.77
2019-02-27T21:05:49.371Z,9.27
2019-02-27T21:08:02.061Z,9.67
2019-02-27T21:10:33.276Z,9.80
2019-02-27T21:12:53.522Z,10.10
2019-02-27T21:14:57.933Z,9.60
2019-02-27T21:17:09.664Z,10.60
2019-02-27T21:19:20.472Z,9.33
2019-02-27T21:21:32.786Z,9.40
2019-02-27T21:23:44.148Z,9.77
2019-02-27T21:25:54.977Z,9.73
2019-02-27T21:28:07.623Z,8.87
2019-02-27T21:31:00.192Z,9.13
2019-02-27T21:33:11.918Z,9.03
2019-02-27T21:35:28.928Z,8.83
2019-02-27T21:37:36.738Z,9.10
2019-02-27T21:39:47.551Z,9.07
2019-02-27T21:41:58.417Z,8.80
2019-02-27T21:44:09.242Z,10.33
2019-02-27T21:46:20.057Z,9.40
2019-02-27T21:48:30.887Z,9.50
2019-02-27T21:50:41.702Z,8.50
2019-02-27T21:52:54.390Z,8.60
2019-02-27T21:55:46.991Z,8.30
2019-02-27T21:57:58.258Z,9.53
2019-02-27T22:00:30.373Z,8.40
2019-02-27T22:02:41.201Z,8.63
2019-02-27T22:04:52.024Z,7.80
2019-02-27T22:07:02.816Z,9.20
2019-02-27T22:09:14.606Z,9.10
2019-02-27T22:11:27.104Z,8.33
2019-02-27T22:13:39.192Z,8.13
2019-02-27T22:15:50.053Z,8.40
2019-02-27T22:18:00.971Z,9.77
2019-02-27T22:20:12.001Z,9.03
2019-02-27T22:22:22.823Z,9.00
2019-02-27T22:24:33.637Z,10.17
2019-02-27T22:26:44.465Z,8.53
2019-02-27T22:28:55.302Z,9.20
2019-02-27T22:31:07.597Z,9.87
2019-02-27T22:33:22.035Z,8.80
2019-02-27T22:35:37.289Z,8.60
2019-02-27T22:37:44.457Z,8.87
2019-02-27T22:39:55.377Z,9.53
2019-02-27T22:42:06.178Z,7.57
2019-02-27T22:44:17.019Z,7.70
2019-02-27T22:46:27.869Z,7.67
2019-02-27T22:48:38.678Z,7.93
2019-02-27T22:50:49.498Z,7.80
2019-02-27T22:53:00.303Z,7.47
2019-02-27T22:55:11.330Z,7.23
2019-02-27T22:57:22.884Z,8.13
2019-02-27T22:59:37.341Z,7.53
2019-02-27T23:02:29.236Z,7.70
2019-02-27T23:04:40.050Z,7.70
2019-02-27T23:06:50.888Z,8.07
2019-02-27T23:11:54.041Z,7.47
2019-02-27T23:14:04.942Z,6.80
2019-02-27T23:16:16.070Z,7.90
2019-02-27T23:18:26.954Z,6.50
2019-02-27T23:20:37.777Z,7.03
2019-02-27T23:22:48.604Z,7.20
2019-02-27T23:25:19.316Z,7.83
2019-02-27T23:27:30.131Z,7.50
2019-02-27T23:29:40.927Z,8.10
2019-02-27T23:31:54.862Z,8.83
2019-02-27T23:34:07.789Z,8.57
2019-02-27T23:36:17.339Z,8.73
2019-02-27T23:38:28.118Z,8.60
2019-02-27T23:40:38.921Z,8.00
2019-02-27T23:42:49.760Z,7.93
2019-02-27T23:45:00.561Z,7.30
2019-02-27T23:47:11.383Z,7.37
2019-02-27T23:49:22.192Z,7.30
2019-02-27T23:51:33.000Z,7.83
2019-02-27T23:53:43.807Z,6.60
2019-02-27T23:55:54.714Z,7.37
2019-02-27T23:58:05.528Z,7.70
